Time,TemperatureF,DewpointF,PressureIn,WindDirection,WindDirectionDegrees,WindSpeedMPH,WindSpeedGustMPH,Humidity,HourlyPrecipIn,Conditions,Clouds,dailyrainin,SolarRadiationWatts/m^2,SoftwareType,DateUTC
2013-10-03 00:00:00,70.0,68.8,30.00,ESE,120,0.0,1.0,96,0.00,RA,RA,0.00,0.0,WeatherDisplay:10.37,2013-10-03 05:00:00,
2013-10-03 00:10:00,70.0,68.8,30.00,ESE,120,0.0,1.0,96,0.00,CLR,CLR,0.00,0.0,WeatherDisplay:10.37,2013-10-03 05:10:00,
2013-10-03 00:20:00,69.9,68.7,30.00,ESE,120,0.0,1.0,96,0.00,CLR,CLR,0.00,0.0,WeatherDisplay:10.37,2013-10-03 05:20:00,
2013-10-03 00:30:00,69.9,68.7,30.00,ESE,120,0.0,1.0,96,0.00,CLR,CLR,0.00,0.0,WeatherDisplay:10.37,2013-10-03 05:30:00,
2013-10-03 00:40:00,69.7,68.5,30.00,ESE,120,0.0,0.0,96,0.00,CLR,CLR,0.00,0.0,WeatherDisplay:10.37,2013-10-03 05:40:00,
2013-10-03 00:50:00,69.6,68.4,30.00,ESE,120,0.0,1.0,96,0.00,CLR,CLR,0.00,0.0,WeatherDisplay:10.37,2013-10-03 05:50:00,
2013-10-03 01:00:00,69.6,68.4,30.00,ESE,120,0.0,1.0,96,0.00,CLR,CLR,0.00,0.0,WeatherDisplay:10.37,2013-10-03 06:00:00,
2013-10-03 01:10:00,69.5,68.4,29.99,ESE,120,1.0,2.0,96,0.00,CLR,CLR,0.00,0.0,WeatherDisplay:10.37,2013-10-03 06:10:00,
2013-10-03 01:20:00,69.6,68.4,29.99,ESE,118,1.0,1.0,96,0.00,CLR,CLR,0.00,0.0,WeatherDisplay:10.37,2013-10-03 06:20:00,
2013-10-03 01:30:00,69.5,68.3,29.99,ESE,113,1.0,2.0,96,0.00,CLR,CLR,0.00,0.0,WeatherDisplay:10.37,2013-10-03 06:30:00,
2013-10-03 01:40:00,69.3,67.8,29.99,ESE,102,0.0,1.0,95,0.00,CLR,CLR,0.00,0.0,WeatherDisplay:10.37,2013-10-03 06:40:00,
2013-10-03 01:50:00,69.2,68.0,29.99,ESE,102,0.0,1.0,96,0.00,BKN,BKN,0.00,0.0,WeatherDisplay:10.37,2013-10-03 06:50:00,
2013-10-03 02:00:00,69.0,67.8,29.99,ESE,102,0.0,0.0,96,0.00,BKN,BKN,0.00,0.0,WeatherDisplay:10.37,2013-10-03 07:00:00,
2013-10-03 02:10:00,68.7,67.2,29.99,ESE,102,0.0,0.0,95,0.00,BKN,BKN,0.00,0.0,WeatherDisplay:10.37,2013-10-03 07:10:00,
2013-10-03 02:20:00,68.5,67.3,29.99,ESE,102,0.0,0.0,96,0.00,BKN,BKN,0.00,0.0,WeatherDisplay:10.37,2013-10-03 07:20:00,
2013-10-03 02:30:00,68.3,67.1,29.98,ESE,102,0.0,0.0,96,0.00,BKN,BKN,0.00,0.0,WeatherDisplay:10.37,2013-10-03 07:30:00,
2013-10-03 02:40:00,68.1,66.9,29.98,East,101,0.0,0.0,96,0.00,BKN,BKN,0.00,0.0,WeatherDisplay:10.37,2013-10-03 07:40:00,
2013-10-03 02:50:00,68.0,66.8,29.98,ESE,102,0.0,1.0,96,0.00,BKN,BKN,0.00,0.0,WeatherDisplay:10.37,2013-10-03 07:50:00,
2013-10-03 03:00:00,68.1,66.9,29.98,ESE,119,0.0,2.0,96,0.00,BKN,BKN,0.00,0.0,WeatherDisplay:10.37,2013-10-03 08:00:00,
2013-10-03 03:10:00,68.2,66.7,29.98,ESE,115,1.0,2.0,95,0.00,BKN,BKN,0.00,0.0,WeatherDisplay:10.37,2013-10-03 08:10:00,
2013-10-03 03:20:00,68.2,66.7,29.98,ESE,114,1.0,2.0,95,0.00,BKN,BKN,0.00,0.0,WeatherDisplay:10.37,2013-10-03 08:20:00,
2013-10-03 03:30:00,68.3,66.8,29.98,ESE,115,1.0,3.0,95,0.00,SCT,SCT,0.00,0.0,WeatherDisplay:10.37,2013-10-03 08:30:00,
2013-10-03 03:40:00,68.3,66.8,29.98,ESE,116,0.0,2.0,95,0.00,SCT,SCT,0.00,0.0,WeatherDisplay:10.37,2013-10-03 08:40:00,
2013-10-03 03:50:00,68.3,66.8,29.98,ESE,114,1.0,3.0,95,0.00,SCT,SCT,0.00,0.0,WeatherDisplay:10.37,2013-10-03 08:50:00,
2013-10-03 04:00:00,68.2,66.7,29.98,ESE,111,0.0,2.0,95,0.00,SCT,SCT,0.00,0.0,WeatherDisplay:10.37,2013-10-03 09:00:00,
2013-10-03 04:10:00,67.9,66.4,29.98,ESE,107,0.0,1.0,95,0.00,OVC,OVC,0.00,0.0,WeatherDisplay:10.37,2013-10-03 09:10:00,
2013-10-03 04:20:00,67.5,66.0,29.98,ESE,107,0.0,1.0,95,0.00,OVC,OVC,0.00,0.0,WeatherDisplay:10.37,2013-10-03 09:20:00,
2013-10-03 04:30:00,67.1,65.6,29.98,ESE,107,0.0,0.0,95,0.00,OVC,OVC,0.00,0.0,WeatherDisplay:10.37,2013-10-03 09:30:00,
2013-10-03 04:40:00,66.7,65.5,29.98,ESE,107,0.0,0.0,96,0.00,OVC,OVC,0.00,0.0,WeatherDisplay:10.37,2013-10-03 09:40:00,
2013-10-03 04:50:00,66.6,65.4,29.98,ESE,107,0.0,0.0,96,0.00,OVC,OVC,0.00,0.0,WeatherDisplay:10.37,2013-10-03 09:50:00,
2013-10-03 05:00:00,66.6,65.4,29.99,ESE,107,0.0,0.0,96,0.00,OVC,OVC,0.00,0.0,WeatherDisplay:10.37,2013-10-03 10:00:00,
2013-10-03 05:10:00,66.5,65.3,29.99,ESE,107,0.0,0.0,96,0.00,BKN,BKN,0.00,0.0,WeatherDisplay:10.37,2013-10-03 10:10:00,
2013-10-03 05:20:00,67.0,66.1,29.99,ESE,107,0.0,0.0,97,0.00,BKN,BKN,0.00,0.0,WeatherDisplay:10.37,2013-10-03 10:20:00,
2013-10-03 05:30:00,67.2,66.3,29.99,ESE,107,0.0,1.0,97,0.00,BKN,BKN,0.00,0.0,WeatherDisplay:10.37,2013-10-03 10:30:00,
2013-10-03 05:40:00,67.4,66.5,29.99,ESE,107,0.0,1.0,97,0.00,BKN,BKN,0.00,0.0,WeatherDisplay:10.37,2013-10-03 10:40:00,
2013-10-03 05:50:00,67.4,66.5,29.99,ESE,107,0.0,0.0,97,0.00,BKN,BKN,0.00,0.0,WeatherDisplay:10.37,2013-10-03 10:50:00,
2013-10-03 06:00:00,67.4,66.5,29.99,ESE,107,0.0,1.0,97,0.00,BKN,BKN,0.00,0.0,WeatherDisplay:10.37,2013-10-03 11:00:00,
2013-10-03 06:10:00,67.6,66.4,30.00,ESE,110,0.0,2.0,96,0.00,BKN,BKN,0.00,0.0,WeatherDisplay:10.37,2013-10-03 11:10:00,
2013-10-03 06:20:00,67.5,66.3,30.00,ESE,110,0.0,1.0,96,0.00,BKN,BKN,0.00,0.0,WeatherDisplay:10.37,2013-10-03 11:20:00,
2013-10-03 06:30:00,67.1,66.0,30.00,ESE,110,0.0,0.0,96,0.00,SCT,SCT,0.00,0.0,WeatherDisplay:10.37,2013-10-03 11:30:00,
2013-10-03 06:40:00,66.9,65.7,30.00,ESE,110,0.0,0.0,96,0.00,SCT,SCT,0.00,0.0,WeatherDisplay:10.37,2013-10-03 11:40:00,
2013-10-03 06:50:00,66.6,65.4,30.01,ESE,110,0.0,0.0,96,0.00,CLR,CLR,0.00,0.0,WeatherDisplay:10.37,2013-10-03 11:50:00,
2013-10-03 07:00:00,66.2,65.0,30.01,ESE,110,0.0,0.0,96,0.00,CLR,CLR,0.00,0.0,WeatherDisplay:10.37,2013-10-03 12:00:00,
2013-10-03 07:10:00,66.6,65.7,30.01,ESE,110,0.0,0.0,97,0.00,SCT,SCT,0.00,0.0,WeatherDisplay:10.37,2013-10-03 12:10:00,
2013-10-03 07:20:00,66.6,65.7,30.01,ESE,110,0.0,0.0,97,0.00,SCT,SCT,0.00,0.0,WeatherDisplay:10.37,2013-10-03 12:20:00,
2013-10-03 07:30:00,67.0,66.2,30.01,ESE,110,0.0,1.0,97,0.00,SCT,SCT,0.00,0.0,WeatherDisplay:10.37,2013-10-03 12:30:00,
2013-10-03 07:40:00,67.8,66.9,30.01,ESE,117,1.0,2.0,97,0.00,SCT,SCT,0.00,0.0,WeatherDisplay:10.37,2013-10-03 12:40:00,
2013-10-03 07:50:00,68.8,67.9,30.01,ESE,111,0.0,2.0,97,0.00,CLR,CLR,0.00,0.0,WeatherDisplay:10.37,2013-10-03 12:50:00,
2013-10-03 08:00:00,69.2,67.7,30.02,ESE,105,0.0,2.0,95,0.00,CLR,CLR,0.00,0.0,WeatherDisplay:10.37,2013-10-03 13:00:00,
2013-10-03 08:10:00,69.4,67.9,30.02,ESE,119,0.0,1.0,95,0.00,CLR,CLR,0.00,0.0,WeatherDisplay:10.37,2013-10-03 13:10:00,
2013-10-03 08:20:00,69.8,68.0,30.02,ESE,122,0.0,1.0,94,0.00,CLR,CLR,0.00,0.0,WeatherDisplay:10.37,2013-10-03 13:20:00,
2013-10-03 08:30:00,70.1,68.3,30.02,SE,124,0.0,1.0,94,0.00,CLR,CLR,0.00,0.0,WeatherDisplay:10.37,2013-10-03 13:30:00,
2013-10-03 08:40:00,70.5,68.4,30.02,SSE,164,0.0,2.0,93,0.00,CLR,CLR,0.00,0.0,WeatherDisplay:10.37,2013-10-03 13:40:00,
2013-10-03 08:50:00,71.4,69.3,30.02,SSW,194,0.0,3.0,93,0.00,CLR,CLR,0.00,0.0,WeatherDisplay:10.37,2013-10-03 13:50:00,
2013-10-03 09:00:00,72.1,69.0,30.02,South,171,0.0,3.0,90,0.00,CLR,CLR,0.00,0.0,WeatherDisplay:10.37,2013-10-03 14:00:00,
2013-10-03 09:10:00,72.4,69.3,30.02,SW,225,1.0,2.0,90,0.00,CLR,CLR,0.00,0.0,WeatherDisplay:10.37,2013-10-03 14:10:00,
2013-10-03 09:20:00,72.6,69.2,30.03,SSW,194,1.0,3.0,89,0.00,CLR,CLR,0.00,0.0,WeatherDisplay:10.37,2013-10-03 14:20:00,
2013-10-03 09:30:00,72.7,69.3,30.03,SSW,200,1.0,4.0,89,0.00,CLR,CLR,0.00,0.0,WeatherDisplay:10.37,2013-10-03 14:30:00,
2013-10-03 09:40:00,73.2,69.4,30.02,South,176,1.0,3.0,88,0.00,CLR,CLR,0.00,0.0,WeatherDisplay:10.37,2013-10-03 14:40:00,
2013-10-03 09:50:00,74.0,70.2,30.02,SSW,204,0.0,3.0,88,0.00,CLR,CLR,0.00,0.0,WeatherDisplay:10.37,2013-10-03 14:50:00,
2013-10-03 10:00:00,75.3,70.5,30.02,SSW,193,2.0,5.0,85,0.00,CLR,CLR,0.00,0.0,WeatherDisplay:10.37,2013-10-03 15:00:00,
2013-10-03 10:10:00,76.0,70.1,30.01,SE,140,2.0,5.0,82,0.00,CLR,CLR,0.00,0.0,WeatherDisplay:10.37,2013-10-03 15:10:00,
2013-10-03 10:20:00,76.6,70.0,30.01,SSW,207,3.0,7.0,80,0.00,CLR,CLR,0.00,0.0,WeatherDisplay:10.37,2013-10-03 15:20:00,
2013-10-03 10:30:00,77.8,70.0,30.01,South,184,3.0,7.0,77,0.00,CLR,CLR,0.00,0.0,WeatherDisplay:10.37,2013-10-03 15:30:00,
2013-10-03 10:40:00,79.0,70.4,30.01,South,182,1.0,9.0,75,0.00,CLR,CLR,0.00,0.0,WeatherDisplay:10.37,2013-10-03 15:40:00,
2013-10-03 10:50:00,80.0,70.2,30.00,SSW,200,1.0,7.0,72,0.00,CLR,CLR,0.00,0.0,WeatherDisplay:10.37,2013-10-03 15:50:00,
2013-10-03 11:00:00,80.9,69.8,30.00,SSW,195,3.0,10.0,69,0.00,CLR,CLR,0.00,0.0,WeatherDisplay:10.37,2013-10-03 16:00:00,
2013-10-03 11:10:00,81.2,69.2,30.00,South,177,2.0,9.0,67,0.00,CLR,CLR,0.00,0.0,WeatherDisplay:10.37,2013-10-03 16:10:00,
2013-10-03 11:20:00,81.5,68.6,29.99,SE,141,3.0,9.0,65,0.00,CLR,CLR,0.00,0.0,WeatherDisplay:10.37,2013-10-03 16:20:00,
2013-10-03 11:30:00,82.2,68.8,29.99,South,184,3.0,8.0,64,0.00,CLR,CLR,0.00,0.0,WeatherDisplay:10.37,2013-10-03 16:30:00,
2013-10-03 11:40:00,82.8,68.4,29.99,South,173,3.0,7.0,62,0.00,CLR,CLR,0.00,0.0,WeatherDisplay:10.37,2013-10-03 16:40:00,
2013-10-03 11:50:00,82.8,68.0,29.99,SSE,159,5.0,10.0,61,0.00,CLR,CLR,0.00,0.0,WeatherDisplay:10.37,2013-10-03 16:50:00,
2013-10-03 12:00:00,82.7,67.9,29.99,SSW,193,6.0,10.0,61,0.00,CLR,CLR,0.00,0.0,WeatherDisplay:10.37,2013-10-03 17:00:00,
2013-10-03 12:10:00,83.1,68.3,29.99,SSW,196,5.0,10.0,61,0.00,CLR,CLR,0.00,0.0,WeatherDisplay:10.37,2013-10-03 17:10:00,
2013-10-03 12:20:00,83.4,68.5,29.99,South,183,5.0,10.0,61,0.00,CLR,CLR,0.00,0.0,WeatherDisplay:10.37,2013-10-03 17:20:00,
2013-10-03 12:30:00,83.7,69.3,29.99,South,170,3.0,7.0,62,0.00,CLR,CLR,0.00,0.0,WeatherDisplay:10.37,2013-10-03 17:30:00,
2013-10-03 12:40:00,83.0,68.2,29.99,SSW,194,3.0,10.0,61,0.00,CLR,CLR,0.00,0.0,WeatherDisplay:10.37,2013-10-03 17:40:00,
2013-10-03 12:50:00,83.4,68.5,29.98,South,181,2.0,8.0,61,0.00,CLR,CLR,0.00,0.0,WeatherDisplay:10.37,2013-10-03 17:50:00,
2013-10-03 13:00:00,83.9,68.0,29.98,SSW,202,3.0,9.0,59,0.00,CLR,CLR,0.00,0.0,WeatherDisplay:10.37,2013-10-03 18:00:00,
2013-10-03 13:10:00,84.3,68.4,29.97,SSW,200,3.0,12.0,59,0.00,CLR,CLR,0.00,0.0,WeatherDisplay:10.37,2013-10-03 18:10:00,
2013-10-03 13:20:00,85.4,69.9,29.97,SSW,202,3.0,9.0,60,0.00,CLR,CLR,0.00,0.0,WeatherDisplay:10.37,2013-10-03 18:20:00,
2013-10-03 13:30:00,84.5,68.6,29.96,SSW,200,1.0,7.0,59,0.00,CLR,CLR,0.00,0.0,WeatherDisplay:10.37,2013-10-03 18:30:00,
2013-10-03 13:40:00,85.1,68.7,29.96,South,178,5.0,10.0,58,0.00,CLR,CLR,0.00,0.0,WeatherDisplay:10.37,2013-10-03 18:40:00,
2013-10-03 13:50:00,85.6,69.2,29.96,South,169,2.0,8.0,58,0.00,CLR,CLR,0.00,0.0,WeatherDisplay:10.37,2013-10-03 18:50:00,
2013-10-03 14:00:00,86.1,70.1,29.95,South,172,2.0,7.0,59,0.00,CLR,CLR,0.00,0.0,WeatherDisplay:10.37,2013-10-03 19:00:00,
2013-10-03 14:10:00,86.9,69.3,29.94,SSE,160,2.0,7.0,56,0.00,CLR,CLR,0.00,0.0,WeatherDisplay:10.37,2013-10-03 19:10:00,
2013-10-03 14:20:00,86.9,69.4,29.94,SSE,164,3.0,6.0,56,0.00,CLR,CLR,0.00,0.0,WeatherDisplay:10.37,2013-10-03 19:20:00,
2013-10-03 14:30:00,85.3,69.4,29.94,SE,132,2.0,6.0,59,0.00,CLR,CLR,0.00,0.0,WeatherDisplay:10.37,2013-10-03 19:30:00,
2013-10-03 14:40:00,85.5,69.5,29.94,South,170,1.0,5.0,59,0.00,CLR,CLR,0.00,0.0,WeatherDisplay:10.37,2013-10-03 19:40:00,
2013-10-03 14:50:00,86.3,69.3,29.94,South,171,3.0,7.0,57,0.00,CLR,CLR,0.00,0.0,WeatherDisplay:10.37,2013-10-03 19:50:00,
2013-10-03 15:00:00,85.3,69.8,29.93,SSE,153,2.0,5.0,60,0.00,BKN,BKN,0.00,0.0,WeatherDisplay:10.37,2013-10-03 20:00:00,
2013-10-03 15:10:00,86.2,70.1,29.93,SSE,153,2.0,5.0,59,0.00,BKN,BKN,0.00,0.0,WeatherDisplay:10.37,2013-10-03 20:10:00,
2013-10-03 15:20:00,86.3,69.8,29.93,South,188,2.0,7.0,58,0.00,BKN,BKN,0.00,0.0,WeatherDisplay:10.37,2013-10-03 20:20:00,
2013-10-03 15:30:00,86.5,70.0,29.93,SSE,157,2.0,8.0,58,0.00,BKN,BKN,0.00,0.0,WeatherDisplay:10.37,2013-10-03 20:30:00,
2013-10-03 15:40:00,86.1,69.1,29.93,SSE,165,2.0,5.0,57,0.00,SCT,SCT,0.00,0.0,WeatherDisplay:10.37,2013-10-03 20:40:00,
2013-10-03 15:50:00,86.2,69.2,29.92,SSW,207,2.0,9.0,57,0.00,SCT,SCT,0.00,0.0,WeatherDisplay:10.37,2013-10-03 20:50:00,
2013-10-03 16:00:00,84.8,69.4,29.92,South,170,2.0,6.0,60,0.00,SCT,SCT,0.00,0.0,WeatherDisplay:10.37,2013-10-03 21:00:00,
2013-10-03 16:10:00,85.2,69.2,29.92,SSE,159,2.0,6.0,59,0.00,SCT,SCT,0.00,0.0,WeatherDisplay:10.37,2013-10-03 21:10:00,
2013-10-03 16:20:00,84.5,69.5,29.91,SSE,156,2.0,8.0,61,0.00,SCT,SCT,0.00,0.0,WeatherDisplay:10.37,2013-10-03 21:20:00,
2013-10-03 16:30:00,84.8,69.9,29.92,South,184,1.0,12.0,61,0.00,SCT,SCT,0.00,0.0,WeatherDisplay:10.37,2013-10-03 21:30:00,
2013-10-03 16:40:00,84.8,69.9,29.91,South,169,2.0,8.0,61,0.00,BKN,BKN,0.00,0.0,WeatherDisplay:10.37,2013-10-03 21:40:00,
2013-10-03 16:50:00,84.3,69.9,29.91,SSE,166,1.0,7.0,62,0.00,BKN,BKN,0.00,0.0,WeatherDisplay:10.37,2013-10-03 21:50:00,
2013-10-03 17:00:00,85.1,69.6,29.91,SSE,150,1.0,7.0,60,0.00,SCT,SCT,0.00,0.0,WeatherDisplay:10.37,2013-10-03 22:00:00,
2013-10-03 17:10:00,85.1,70.1,29.91,South,169,3.0,6.0,61,0.00,SCT,SCT,0.00,0.0,WeatherDisplay:10.37,2013-10-03 22:10:00,
2013-10-03 17:20:00,84.8,68.9,29.91,SE,146,2.0,6.0,59,0.00,CLR,CLR,0.00,0.0,WeatherDisplay:10.37,2013-10-03 22:20:00,
2013-10-03 17:30:00,84.8,69.4,29.91,SE,131,2.0,4.0,60,0.00,CLR,CLR,0.00,0.0,WeatherDisplay:10.37,2013-10-03 22:30:00,
2013-10-03 17:40:00,84.6,69.6,29.91,SSE,149,1.0,4.0,61,0.00,CLR,CLR,0.00,0.0,WeatherDisplay:10.37,2013-10-03 22:40:00,
2013-10-03 17:50:00,83.9,69.5,29.91,SE,146,1.0,8.0,62,0.00,CLR,CLR,0.00,0.0,WeatherDisplay:10.37,2013-10-03 22:50:00,
2013-10-03 18:00:00,83.5,69.6,29.91,SSE,152,1.0,3.0,63,0.00,CLR,CLR,0.00,0.0,WeatherDisplay:10.37,2013-10-03 23:00:00,
2013-10-03 18:10:00,82.3,69.4,29.91,SE,143,1.0,3.0,65,0.00,CLR,CLR,0.00,0.0,WeatherDisplay:10.37,2013-10-03 23:10:00,
2013-10-03 18:20:00,81.4,69.4,29.92,SE,131,0.0,2.0,67,0.00,CLR,CLR,0.00,0.0,WeatherDisplay:10.37,2013-10-03 23:20:00,
2013-10-03 18:30:00,80.2,69.1,29.92,ESE,122,0.0,3.0,69,0.00,CLR,CLR,0.00,0.0,WeatherDisplay:10.37,2013-10-03 23:30:00,
2013-10-03 18:40:00,79.2,69.0,29.92,SE,127,1.0,2.0,71,0.00,CLR,CLR,0.00,0.0,WeatherDisplay:10.37,2013-10-03 23:40:00,
2013-10-03 18:50:00,78.5,68.7,29.92,SE,132,0.0,2.0,72,0.00,CLR,CLR,0.00,0.0,WeatherDisplay:10.37,2013-10-03 23:50:00,
2013-10-03 19:00:00,77.9,68.6,29.92,ESE,115,1.0,2.0,73,0.00,CLR,CLR,0.00,0.0,WeatherDisplay:10.37,2013-10-04 00:00:00,
2013-10-03 19:10:00,77.6,68.6,29.92,ESE,106,1.0,2.0,74,0.00,CLR,CLR,0.00,0.0,WeatherDisplay:10.37,2013-10-04 00:10:00,
2013-10-03 19:20:00,77.1,68.6,29.92,ESE,114,1.0,3.0,75,0.00,CLR,CLR,0.00,0.0,WeatherDisplay:10.37,2013-10-04 00:20:00,
2013-10-03 19:30:00,76.7,68.6,29.92,ESE,114,1.0,3.0,76,0.00,CLR,CLR,0.00,0.0,WeatherDisplay:10.37,2013-10-04 00:30:00,
2013-10-03 19:40:00,76.3,68.6,29.93,ESE,111,1.0,2.0,77,0.00,CLR,CLR,0.00,0.0,WeatherDisplay:10.37,2013-10-04 00:40:00,
2013-10-03 19:50:00,75.9,68.6,29.93,ESE,110,1.0,3.0,78,0.00,CLR,CLR,0.00,0.0,WeatherDisplay:10.37,2013-10-04 00:50:00,
2013-10-03 20:00:00,75.6,68.3,29.93,ESE,109,0.0,2.0,78,0.00,CLR,CLR,0.00,0.0,WeatherDisplay:10.37,2013-10-04 01:00:00,
2013-10-03 20:10:00,75.2,68.2,29.94,ESE,117,1.0,2.0,79,0.00,CLR,CLR,0.00,0.0,WeatherDisplay:10.37,2013-10-04 01:10:00,
2013-10-03 20:20:00,74.8,68.2,29.94,ESE,116,1.0,2.0,80,0.00,CLR,CLR,0.00,0.0,WeatherDisplay:10.37,2013-10-04 01:20:00,
2013-10-03 20:30:00,74.6,68.4,29.94,ESE,122,1.0,3.0,81,0.00,CLR,CLR,0.00,0.0,WeatherDisplay:10.37,2013-10-04 01:30:00,
2013-10-03 20:40:00,74.3,68.4,29.95,ESE,116,0.0,2.0,82,0.00,CLR,CLR,0.00,0.0,WeatherDisplay:10.37,2013-10-04 01:40:00,
2013-10-03 20:50:00,74.1,68.3,29.95,ESE,113,0.0,2.0,82,0.00,CLR,CLR,0.00,0.0,WeatherDisplay:10.37,2013-10-04 01:50:00,
2013-10-03 21:00:00,74.0,68.5,29.95,ESE,119,0.0,2.0,83,0.00,CLR,CLR,0.00,0.0,WeatherDisplay:10.37,2013-10-04 02:00:00,
2013-10-03 21:10:00,73.9,68.4,29.95,ESE,116,1.0,3.0,83,0.00,CLR,CLR,0.00,0.0,WeatherDisplay:10.37,2013-10-04 02:10:00,
2013-10-03 21:20:00,73.8,68.3,29.96,ESE,113,0.0,3.0,83,0.00,CLR,CLR,0.00,0.0,WeatherDisplay:10.37,2013-10-04 02:20:00,
2013-10-03 21:30:00,73.8,68.3,29.96,ESE,119,1.0,3.0,83,0.00,CLR,CLR,0.00,0.0,WeatherDisplay:10.37,2013-10-04 02:30:00,
2013-10-03 21:40:00,73.6,68.5,29.95,SE,125,1.0,4.0,84,0.00,CLR,CLR,0.00,0.0,WeatherDisplay:10.37,2013-10-04 02:40:00,
2013-10-03 21:50:00,73.5,68.4,29.96,SE,135,1.0,3.0,84,0.00,CLR,CLR,0.00,0.0,WeatherDisplay:10.37,2013-10-04 02:50:00,
2013-10-03 22:00:00,73.4,68.6,29.96,SE,139,1.0,2.0,85,0.00,CLR,CLR,0.00,0.0,WeatherDisplay:10.37,2013-10-04 03:00:00,
2013-10-03 22:10:00,73.1,68.4,29.96,South,185,0.0,2.0,85,0.00,CLR,CLR,0.00,0.0,WeatherDisplay:10.37,2013-10-04 03:10:00,
2013-10-03 22:20:00,73.1,68.3,29.96,SSE,153,0.0,2.0,85,0.00,CLR,CLR,0.00,0.0,WeatherDisplay:10.37,2013-10-04 03:20:00,
2013-10-03 22:30:00,72.9,68.5,29.97,SSE,151,0.0,2.0,86,0.00,CLR,CLR,0.00,0.0,WeatherDisplay:10.37,2013-10-04 03:30:00,
2013-10-03 22:40:00,72.8,68.4,29.97,SSE,152,0.0,2.0,86,0.00,CLR,CLR,0.00,0.0,WeatherDisplay:10.37,2013-10-04 03:40:00,
2013-10-03 22:50:00,72.7,68.6,29.97,SSE,160,0.0,3.0,87,0.00,CLR,CLR,0.00,0.0,WeatherDisplay:10.37,2013-10-04 03:50:00,
2013-10-03 23:00:00,72.6,68.5,29.97,SSE,148,2.0,4.0,87,0.00,CLR,CLR,0.00,0.0,WeatherDisplay:10.37,2013-10-04 04:00:00,
2013-10-03 23:40:00,71.8,68.4,29.97,SSE,163,0.0,2.0,89,0.00,CLR,CLR,0.00,0.0,WeatherDisplay:10.37,2013-10-04 04:40:00,
2013-10-03 23:50:00,71.6,68.2,29.97,SSE,153,2.0,4.0,89,0.00,CLR,CLR,0.00,0.0,WeatherDisplay:10.37,2013-10-04 04:50:00,